Accueil
METAR-TAF:

METAR-TAF

Aéroports :

Rota, Espagne

latitude: 36-39N, longitude: 006-21W, altitude: 26 m

Observation

Le bulletin a été fait il y a 24 minutes, à 17:00 UTC
Vent 7 kt de ouest/nord-ouest, variant entre ouest et nord/nord-ouest
Température 12°C
Humidité 62%
Pression 1012 hPa
Visibilité 10 km ou plus
Quelques nuages à une hauteur de 4000 ft

METAR: LERT 051700Z 30007KT 260V330 9999 FEW040 12/05 Q1012 NOSIG

Heure: 18:24 (17:24 UTC)

Prévision

Le bulletin a été fait il y a 3 heures et 24 minutes, à 14:00 UTC
Prévision valable du 05 à 15 UTC au 06 à 15 UTC
Vent 12 kt de nord-ouest
Visibilité 10 km ou plus
Quelques nuages à une hauteur de 3000 ft

TAF: LERT 051400Z 0515/0615 32012KT 9999 FEW030 TX15/0614Z TN08/0602Z

Observations et prévisions météorologiques de plus de 4000 aéroports (messages METAR et TAF).

Les stations disponibles sont représentées par des disques jaunes et rouges sur la carte.

Passer la souris dessus pour voir le nom de la station.

Cliquer dessus pour voir les observations et prévisions météorologiques.

Pour changer de carte: cliquez sur les boutons verts avec une croix noire pour zoomer, sur le bouton vert avec un tiret pour effectuer un zoom arrière, ou sur les flèches vertes pour les cartes adjacentes.


METAR-TAF: